Time;durP1;ratioP1;P1;durP2;ratioP2;P2;SDS_P1;SDS_P2;PMS_P1;PMS_P2;Temp;Humidity;BMP_temperature;BMP_pressure;BME280_temperature;BME280_humidity;BME280_pressure;Samples;Min_cycle;Max_cycle;Signal;HPM_P1;HPM_P2
2021/06/25 00:01:23;;;;;;;0.30;0.20;;;24.40;99.90;;;;;;5099347;28;20226;-69
2021/06/25 00:03:49;;;;;;;0.75;0.47;;;24.30;99.90;;;;;;5109371;28;20587;-68
2021/06/25 00:06:15;;;;;;;0.80;0.80;;;24.20;99.90;;;;;;5091079;28;20190;-68
2021/06/25 00:08:41;;;;;;;4.95;1.05;;;24.20;99.90;;;;;;5109278;28;20197;-69
2021/06/25 00:11:07;;;;;;;20.58;0.75;;;24.40;99.90;;;;;;5091055;28;20182;-69
2021/06/25 00:13:33;;;;;;;0.50;0.43;;;24.40;99.90;;;;;;5112614;28;20229;-69
2021/06/25 00:15:59;;;;;;;0.30;0.30;;;24.50;99.90;;;;;;5113300;28;20187;-68
2021/06/25 00:18:25;;;;;;;1.95;1.17;;;24.40;99.90;;;;;;5113348;28;20158;-69
2021/06/25 00:20:51;;;;;;;0.20;0.20;;;24.40;99.90;;;;;;5113387;28;20155;-68
2021/06/25 00:23:17;;;;;;;0.75;0.75;;;24.20;99.90;;;;;;5113193;28;20162;-68
2021/06/25 00:25:43;;;;;;;0.77;0.70;;;24.10;99.90;;;;;;5113065;28;20151;-69
2021/06/25 00:28:09;;;;;;;0.60;0.60;;;24.00;99.90;;;;;;5094851;28;20163;-69
2021/06/25 00:30:34;;;;;;;0.00;0.00;;;24.00;99.90;;;;;;5107465;28;20179;-68
2021/06/25 00:33:00;;;;;;;1.27;0.85;;;23.90;99.90;;;;;;5112305;28;20200;-69
2021/06/25 00:35:26;;;;;;;0.10;0.10;;;24.00;99.90;;;;;;5112792;28;20186;-68
2021/06/25 00:37:52;;;;;;;1.17;0.43;;;24.00;99.90;;;;;;5113036;28;20176;-68
2021/06/25 00:40:18;;;;;;;3.10;0.52;;;24.00;99.90;;;;;;5094670;28;20174;-69
2021/06/25 00:42:45;;;;;;;1.33;0.82;;;24.00;99.90;;;;;;5094367;28;20522;-68
2021/06/25 00:45:17;;;;;;;0.10;0.10;;;23.90;99.90;;;;;;5111172;28;20223;-68
2021/06/25 00:47:49;;;;;;;0.50;0.47;;;23.90;99.90;;;;;;5112493;28;20166;-69
2021/06/25 00:50:18;;;;;;;1.60;0.93;;;23.80;99.90;;;;;;5112520;28;20155;-68
2021/06/25 00:52:44;;;;;;;0.73;0.40;;;23.70;99.90;;;;;;5080341;28;20184;-69
2021/06/25 00:55:11;;;;;;;0.55;0.52;;;23.90;99.90;;;;;;5087364;28;20196;-69
2021/06/25 00:57:38;;;;;;;1.73;0.47;;;23.90;99.90;;;;;;5072239;28;20184;-69
2021/06/25 01:00:05;;;;;;;0.10;0.10;;;23.80;99.90;;;;;;5082118;28;20225;-69
2021/06/25 01:02:31;;;;;;;1.17;0.95;;;23.60;99.90;;;;;;5092172;28;20679;-68
2021/06/25 01:04:57;;;;;;;0.10;0.10;;;23.50;99.90;;;;;;5092265;28;20164;-68
2021/06/25 01:07:24;;;;;;;0.28;0.28;;;23.20;99.90;;;;;;5089139;28;20210;-69
2021/06/25 01:09:51;;;;;;;0.90;0.73;;;23.10;99.90;;;;;;5071964;28;20156;-68
2021/06/25 01:12:17;;;;;;;0.47;0.30;;;23.00;99.90;;;;;;5071827;28;20171;-68
2021/06/25 01:14:43;;;;;;;0.90;0.43;;;23.00;99.90;;;;;;5071848;28;20184;-68
2021/06/25 01:17:31;;;;;;;0.10;0.10;;;22.80;99.90;;;;;;5071791;28;20192;-69
2021/06/25 01:19:59;;;;;;;1.27;0.63;;;22.60;99.90;;;;;;5071806;28;20247;-68
2021/06/25 01:22:34;;;;;;;5.05;0.45;;;22.60;99.90;;;;;;5053801;28;20164;-68
2021/06/25 01:25:28;;;;;;;1.25;0.47;;;22.40;99.90;;;;;;5075315;28;20164;-68
2021/06/25 01:27:57;;;;;;;0.30;0.30;;;22.30;99.90;;;;;;5083750;28;20269;-69
2021/06/25 01:30:26;;;;;;;0.30;0.25;;;22.50;99.90;;;;;;5073651;28;20167;-69
2021/06/25 01:32:53;;;;;;;0.17;0.17;;;22.60;99.90;;;;;;5091624;28;20217;-68
2021/06/25 01:35:20;;;;;;;0.77;0.35;;;22.70;99.90;;;;;;5073553;28;20259;-68
2021/06/25 01:37:47;;;;;;;0.75;0.75;;;22.70;99.90;;;;;;5073469;28;20557;-69
2021/06/25 01:40:15;;;;;;;0.75;0.70;;;22.70;99.90;;;;;;5091521;28;20152;-68
2021/06/25 01:42:43;;;;;;;0.45;0.45;;;22.70;99.90;;;;;;5091551;28;20220;-68
2021/06/25 01:45:15;;;;;;;0.45;0.45;;;22.70;99.90;;;;;;5091222;28;20219;-68
2021/06/25 01:47:44;;;;;;;0.65;0.65;;;22.60;99.90;;;;;;5091264;28;20196;-69
2021/06/25 01:50:13;;;;;;;0.45;0.45;;;22.50;99.90;;;;;;5073205;28;20167;-68
2021/06/25 01:52:53;;;;;;;0.55;0.55;;;22.50;99.90;;;;;;5082717;28;20202;-68
2021/06/25 01:55:20;;;;;;;2.63;1.33;;;22.50;99.90;;;;;;5053125;28;20195;-68
2021/06/25 01:57:47;;;;;;;1.13;0.65;;;22.50;99.90;;;;;;5053134;28;20203;-68
2021/06/25 02:00:13;;;;;;;1.77;1.02;;;22.40;99.90;;;;;;5084280;28;20175;-68
2021/06/25 02:02:39;;;;;;;0.50;0.50;;;22.30;99.90;;;;;;5072950;28;20163;-68
2021/06/25 02:05:08;;;;;;;0.00;0.00;;;22.40;99.90;;;;;;5091095;28;20168;-68
2021/06/25 02:07:34;;;;;;;1.17;0.50;;;22.40;99.90;;;;;;5090948;28;20191;-68
2021/06/25 02:10:01;;;;;;;0.52;0.52;;;22.50;99.90;;;;;;5090787;28;20163;-68
2021/06/25 02:12:27;;;;;;;1.55;1.23;;;22.50;99.90;;;;;;5090836;28;20167;-69
2021/06/25 02:14:54;;;;;;;0.85;0.30;;;22.20;99.90;;;;;;5072787;28;20628;-68
2021/06/25 02:17:21;;;;;;;4.07;0.63;;;22.10;99.90;;;;;;5090637;28;20198;-68
2021/06/25 02:19:47;;;;;;;1.85;0.70;;;22.30;99.90;;;;;;5090918;28;20243;-68
2021/06/25 02:22:13;;;;;;;0.77;0.65;;;22.40;99.90;;;;;;5090736;28;20266;-69
2021/06/25 02:24:40;;;;;;;13.05;1.10;;;22.40;99.90;;;;;;5089365;28;20560;-69
2021/06/25 02:27:07;;;;;;;0.17;0.17;;;22.60;99.90;;;;;;5070408;28;20189;-69
2021/06/25 02:29:33;;;;;;;2.40;0.63;;;22.80;99.90;;;;;;5070558;28;20161;-68
2021/06/25 02:31:59;;;;;;;0.57;0.57;;;22.80;99.90;;;;;;5070315;28;20153;-68
2021/06/25 02:34:25;;;;;;;0.70;0.70;;;22.70;99.90;;;;;;5070220;28;20188;-68
2021/06/25 02:36:51;;;;;;;0.73;0.73;;;22.70;99.90;;;;;;5069076;28;20193;-68
2021/06/25 02:39:19;;;;;;;0.70;0.32;;;22.50;99.90;;;;;;5070292;28;20574;-68
2021/06/25 02:41:46;;;;;;;0.32;0.32;;;22.50;99.90;;;;;;5070132;28;20176;-68
2021/06/25 02:44:12;;;;;;;0.52;0.52;;;22.40;99.90;;;;;;5051865;28;20228;-68
2021/06/25 02:46:39;;;;;;;0.20;0.20;;;22.20;99.90;;;;;;5069835;28;20250;-69
2021/06/25 02:49:04;;;;;;;0.45;0.35;;;22.40;99.90;;;;;;5051992;28;20188;-68
2021/06/25 02:51:30;;;;;;;1.27;1.17;;;22.60;99.90;;;;;;5069967;28;20526;-68
2021/06/25 02:53:56;;;;;;;0.95;0.82;;;22.70;99.90;;;;;;5070025;28;20230;-68
2021/06/25 02:56:22;;;;;;;0.85;0.85;;;23.00;99.90;;;;;;5069661;28;20203;-68
2021/06/25 02:58:48;;;;;;;0.30;0.30;;;23.00;99.90;;;;;;5071448;28;20183;-68
2021/06/25 03:01:14;;;;;;;0.40;0.40;;;22.90;99.90;;;;;;5089790;28;20160;-68
2021/06/25 03:03:40;;;;;;;0.47;0.47;;;22.90;99.90;;;;;;5089779;28;20160;-68
2021/06/25 03:06:06;;;;;;;3.15;1.55;;;22.80;99.90;;;;;;5089572;28;20251;-68
2021/06/25 03:08:32;;;;;;;1.13;0.85;;;22.60;99.90;;;;;;5071631;28;20164;-68
2021/06/25 03:11:00;;;;;;;0.45;0.30;;;22.50;99.90;;;;;;5089632;28;20171;-68
2021/06/25 03:13:26;;;;;;;1.85;1.75;;;22.60;99.90;;;;;;5089681;28;20565;-69
2021/06/25 03:15:52;;;;;;;1.27;1.10;;;22.50;99.90;;;;;;5071385;28;20162;-68
2021/06/25 03:18:19;;;;;;;2.17;0.75;;;22.40;99.90;;;;;;5089314;28;20183;-68
2021/06/25 03:20:45;;;;;;;0.35;0.35;;;22.40;99.90;;;;;;5089545;28;20188;-68
2021/06/25 03:23:11;;;;;;;0.50;0.30;;;22.30;99.90;;;;;;5088597;28;20152;-68
2021/06/25 03:25:37;;;;;;;1.50;0.40;;;22.30;99.90;;;;;;5087687;28;20170;-68
2021/06/25 03:28:04;;;;;;;20.60;0.95;;;22.30;99.90;;;;;;5089182;28;20164;-68
2021/06/25 03:30:32;;;;;;;0.45;0.45;;;22.30;99.90;;;;;;5089261;28;20191;-68
2021/06/25 03:32:58;;;;;;;4.50;1.85;;;22.30;99.90;;;;;;5071339;28;20487;-68
2021/06/25 03:35:24;;;;;;;0.50;0.50;;;22.40;99.90;;;;;;5089189;28;20573;-68
2021/06/25 03:37:50;;;;;;;7.45;0.68;;;22.40;99.90;;;;;;5089338;28;20156;-68
2021/06/25 03:40:17;;;;;;;3.85;2.38;;;22.50;99.90;;;;;;5089116;28;20191;-69
2021/06/25 03:42:44;;;;;;;0.28;0.22;;;22.50;99.90;;;;;;5089304;28;20182;-68
2021/06/25 03:45:12;;;;;;;0.70;0.70;;;22.50;99.90;;;;;;5088946;28;20211;-69
2021/06/25 03:47:39;;;;;;;1.75;1.08;;;22.60;99.90;;;;;;5088867;28;20160;-68
2021/06/25 03:50:07;;;;;;;0.75;0.47;;;22.40;99.90;;;;;;5088906;28;20286;-68
2021/06/25 03:52:33;;;;;;;0.40;0.32;;;22.50;99.90;;;;;;5089272;28;20156;-68
2021/06/25 03:54:58;;;;;;;0.60;0.45;;;22.70;99.90;;;;;;5089049;28;20199;-68
2021/06/25 03:57:24;;;;;;;2.83;1.00;;;23.20;99.90;;;;;;5088866;28;20631;-68
2021/06/25 03:59:50;;;;;;;0.32;0.32;;;23.60;99.90;;;;;;5070766;28;20658;-68
2021/06/25 04:02:16;;;;;;;0.32;0.25;;;24.10;99.90;;;;;;5071097;28;20166;-69
2021/06/25 04:04:42;;;;;;;0.55;0.55;;;24.60;99.90;;;;;;5089176;28;20620;-68
2021/06/25 04:07:08;;;;;;;0.55;0.55;;;25.00;99.90;;;;;;5089015;28;20688;-68
2021/06/25 04:09:35;;;;;;;0.57;0.30;;;25.00;99.90;;;;;;5088706;28;20185;-69
2021/06/25 04:12:02;;;;;;;1.38;1.13;;;24.50;99.90;;;;;;5088709;28;20669;-68
2021/06/25 04:14:28;;;;;;;3.17;1.83;;;24.50;99.90;;;;;;5088664;28;20187;-68
2021/06/25 04:16:55;;;;;;;4.60;1.35;;;24.70;99.90;;;;;;5088850;28;20156;-68
2021/06/25 04:19:21;;;;;;;0.22;0.22;;;25.00;99.90;;;;;;5088735;28;20215;-68
2021/06/25 04:21:47;;;;;;;1.05;0.95;;;25.40;99.90;;;;;;5088727;28;20187;-68
2021/06/25 04:24:13;;;;;;;1.55;1.13;;;25.60;99.90;;;;;;5070816;28;20167;-68
2021/06/25 04:26:39;;;;;;;1.85;1.27;;;25.50;99.90;;;;;;5088872;28;20170;-69
2021/06/25 04:29:10;;;;;;;0.35;0.35;;;25.60;99.90;;;;;;5088744;28;20170;-68
2021/06/25 04:31:39;;;;;;;8.30;2.42;;;25.70;99.90;;;;;;5070548;28;20263;-68
2021/06/25 04:34:05;;;;;;;0.77;0.65;;;25.60;99.90;;;;;;5088389;28;20199;-68
2021/06/25 04:36:31;;;;;;;0.57;0.57;;;25.70;99.90;;;;;;5088620;28;20156;-68
2021/06/25 04:38:58;;;;;;;0.70;0.70;;;26.10;99.90;;;;;;5088551;28;20186;-69
2021/06/25 04:41:24;;;;;;;0.30;0.30;;;26.70;99.90;;;;;;5088285;28;20203;-68
2021/06/25 04:43:49;;;;;;;0.73;0.73;;;26.60;99.90;;;;;;5088340;28;20215;-69
2021/06/25 04:46:15;;;;;;;0.70;0.70;;;26.70;99.90;;;;;;5088498;28;20188;-69
2021/06/25 04:48:42;;;;;;;0.88;0.68;;;27.40;99.90;;;;;;5088640;28;20164;-69
2021/06/25 04:51:08;;;;;;;5.05;1.23;;;27.60;99.90;;;;;;5070313;28;20218;-68
2021/06/25 04:53:34;;;;;;;0.55;0.55;;;27.70;99.90;;;;;;5088452;28;20154;-69
2021/06/25 04:56:00;;;;;;;0.90;0.85;;;27.40;99.90;;;;;;5070592;28;20156;-69
2021/06/25 04:58:29;;;;;;;0.40;0.40;;;26.70;99.90;;;;;;5088360;28;20167;-68
2021/06/25 05:00:58;;;;;;;0.70;0.70;;;26.50;99.90;;;;;;5073830;28;20282;-68
2021/06/25 05:03:24;;;;;;;0.75;0.73;;;26.40;99.90;;;;;;5073740;28;20199;-69
2021/06/25 05:05:50;;;;;;;9.23;0.90;;;26.30;99.90;;;;;;5091893;28;20152;-68
2021/06/25 05:08:16;;;;;;;0.95;0.88;;;26.70;99.90;;;;;;5091647;28;20175;-70
2021/06/25 05:10:42;;;;;;;11.52;0.95;;;26.50;99.90;;;;;;5091339;28;20648;-69
2021/06/25 05:13:10;;;;;;;1.27;1.17;;;26.90;99.90;;;;;;5091305;28;20167;-68
2021/06/25 05:15:36;;;;;;;0.30;0.30;;;26.60;99.90;;;;;;5063375;28;20192;-69
2021/06/25 05:18:17;;;;;;;1.98;0.73;;;26.20;99.90;;;;;;5071039;28;20171;-69
2021/06/25 05:20:44;;;;;;;2.00;1.35;;;25.80;99.90;;;;;;5071595;28;20207;-69
2021/06/25 05:23:11;;;;;;;2.05;1.10;;;26.70;99.90;;;;;;5071304;28;20489;-68
2021/06/25 05:25:38;;;;;;;1.15;0.98;;;26.70;99.90;;;;;;5053235;28;20168;-68
2021/06/25 05:28:04;;;;;;;0.65;0.65;;;27.40;99.90;;;;;;5071419;28;20156;-69
2021/06/25 05:30:31;;;;;;;2.50;1.73;;;28.10;99.90;;;;;;5071204;28;20191;-69
2021/06/25 05:32:59;;;;;;;0.73;0.73;;;28.80;99.90;;;;;;5053017;28;20203;-68
2021/06/25 05:35:31;;;;;;;6.70;0.70;;;27.50;99.90;;;;;;5053031;28;20259;-69
2021/06/25 05:38:03;;;;;;;0.50;0.50;;;26.80;99.90;;;;;;5070780;28;20152;-68
2021/06/25 05:40:29;;;;;;;1.08;0.98;;;27.00;99.90;;;;;;5078990;28;20202;-69
2021/06/25 05:42:55;;;;;;;2.38;1.70;;;27.30;99.90;;;;;;5082916;28;20171;-68
2021/06/25 05:45:22;;;;;;;0.65;0.60;;;27.50;99.90;;;;;;5073692;28;20226;-68
2021/06/25 05:47:48;;;;;;;3.47;0.95;;;27.70;99.90;;;;;;5085821;28;20658;-68
2021/06/25 05:50:16;;;;;;;1.42;0.95;;;28.70;99.90;;;;;;5089944;28;20210;-69
2021/06/25 05:52:45;;;;;;;2.30;1.13;;;29.10;99.90;;;;;;5090431;28;20163;-69
2021/06/25 05:55:12;;;;;;;1.17;1.08;;;29.90;99.90;;;;;;5072932;28;20199;-69
2021/06/25 05:57:38;;;;;;;0.77;0.77;;;29.80;99.90;;;;;;5072756;28;20177;-69
2021/06/25 06:00:07;;;;;;;1.00;1.00;;;29.80;99.90;;;;;;5072910;28;20195;-68
2021/06/25 06:02:33;;;;;;;0.80;0.80;;;28.60;99.90;;;;;;5064222;28;20168;-69
2021/06/25 06:04:59;;;;;;;15.38;0.82;;;28.00;99.90;;;;;;5053964;28;20201;-69
2021/06/25 06:07:26;;;;;;;1.45;1.08;;;27.70;99.90;;;;;;5053361;28;20647;-69
2021/06/25 06:09:53;;;;;;;1.05;0.90;;;27.50;99.90;;;;;;5069973;28;20244;-68
2021/06/25 06:12:20;;;;;;;0.40;0.40;;;27.10;99.90;;;;;;5070200;28;20179;-68
2021/06/25 06:14:46;;;;;;;6.05;1.45;;;26.20;99.90;;;;;;5070366;28;20215;-68
2021/06/25 06:17:12;;;;;;;5.28;1.85;;;25.90;99.90;;;;;;5070258;28;20175;-68
2021/06/25 06:19:43;;;;;;;0.40;0.32;;;26.10;99.90;;;;;;5052615;28;20179;-68
2021/06/25 06:35:53;;;;;;;3.38;1.75;;;25.60;99.90;;;;;;5069969;28;20457;-68
2021/06/25 06:38:19;;;;;;;1.77;1.05;;;25.70;99.90;;;;;;5068785;28;20395;-68
2021/06/25 06:40:45;;;;;;;2.72;2.53;;;25.80;99.90;;;;;;5052138;28;20721;-68
2021/06/25 06:43:10;;;;;;;0.98;0.90;;;25.80;99.90;;;;;;5075012;28;20279;-68
2021/06/25 06:45:38;;;;;;;0.63;0.63;;;26.30;99.90;;;;;;5085924;28;20643;-68
2021/06/25 06:48:04;;;;;;;1.40;0.85;;;26.70;99.90;;;;;;5071045;28;20223;-68
2021/06/25 06:50:30;;;;;;;1.75;0.77;;;27.00;99.90;;;;;;5073381;28;20187;-69
2021/06/25 06:52:56;;;;;;;7.22;1.75;;;26.90;99.90;;;;;;5089753;28;20151;-68
2021/06/25 06:55:23;;;;;;;1.38;0.88;;;27.10;99.90;;;;;;5089580;28;20190;-67
2021/06/25 06:57:49;;;;;;;0.52;0.50;;;26.70;99.90;;;;;;5089870;28;20156;-68
2021/06/25 07:00:16;;;;;;;0.88;0.88;;;26.40;99.90;;;;;;5075792;28;20163;-69
2021/06/25 07:02:44;;;;;;;2.67;1.10;;;26.60;99.90;;;;;;5069526;28;20151;-69
2021/06/25 07:05:12;;;;;;;0.88;0.77;;;27.00;99.90;;;;;;5069671;28;20172;-69
2021/06/25 07:07:38;;;;;;;1.13;0.50;;;27.00;99.90;;;;;;5069697;28;20171;-68
2021/06/25 07:10:08;;;;;;;4.82;2.47;;;26.60;99.90;;;;;;5051615;28;20175;-68
2021/06/25 07:12:35;;;;;;;1.60;1.13;;;26.80;99.90;;;;;;5069701;28;20569;-69
2021/06/25 07:15:01;;;;;;;1.17;0.80;;;26.90;99.90;;;;;;5069250;28;20192;-69
2021/06/25 07:17:26;;;;;;;1.58;0.63;;;27.20;99.90;;;;;;5065925;28;20190;-70
2021/06/25 07:19:52;;;;;;;1.13;1.13;;;27.40;99.90;;;;;;5089215;28;20191;-70
2021/06/25 07:22:18;;;;;;;0.22;0.22;;;27.50;99.90;;;;;;5070628;28;20195;-71
2021/06/25 07:24:44;;;;;;;1.63;0.95;;;27.50;99.90;;;;;;5089414;28;20164;-69
2021/06/25 07:27:10;;;;;;;1.33;0.70;;;28.50;99.90;;;;;;5089436;28;20632;-69
2021/06/25 07:29:36;;;;;;;1.70;1.05;;;29.70;99.90;;;;;;5071102;28;20598;-70
2021/06/25 07:32:02;;;;;;;0.60;0.30;;;30.70;99.90;;;;;;5071100;28;20199;-69
2021/06/25 07:34:29;;;;;;;0.68;0.65;;;30.70;99.90;;;;;;5089297;28;20213;-70
2021/06/25 07:36:55;;;;;;;0.90;0.88;;;31.90;99.90;;;;;;5089288;28;20175;-70
2021/06/25 07:39:20;;;;;;;1.77;1.00;;;31.70;99.90;;;;;;5081731;28;20596;-70
2021/06/25 07:41:46;;;;;;;3.00;1.02;;;31.80;99.90;;;;;;5088710;28;20244;-69
2021/06/25 07:44:12;;;;;;;1.23;0.93;;;31.40;99.90;;;;;;5088513;28;20692;-69
2021/06/25 07:46:38;;;;;;;3.80;1.30;;;30.80;99.90;;;;;;5070220;28;20183;-69
2021/06/25 07:49:04;;;;;;;0.93;0.90;;;29.90;99.90;;;;;;5070742;28;20175;-68
2021/06/25 07:51:30;;;;;;;1.42;1.27;;;28.80;99.90;;;;;;5088762;28;20199;-70
2021/06/25 07:53:56;;;;;;;0.57;0.45;;;28.00;99.90;;;;;;5088781;28;20199;-70
2021/06/25 07:56:22;;;;;;;1.65;1.55;;;28.10;99.90;;;;;;5087615;28;20156;-70
2021/06/25 07:58:48;;;;;;;1.05;0.88;;;29.50;99.90;;;;;;5088882;28;20163;-70
2021/06/25 08:01:14;;;;;;;0.60;0.60;;;31.40;99.90;;;;;;5088918;28;20275;-68
2021/06/25 08:03:40;;;;;;;0.57;0.57;;;32.60;99.90;;;;;;5088981;28;20160;-69
2021/06/25 08:06:06;;;;;;;0.32;0.32;;;32.50;99.90;;;;;;5088222;28;20151;-69
2021/06/25 08:08:33;;;;;;;0.63;0.63;;;31.60;99.90;;;;;;5088915;28;20158;-70
2021/06/25 08:10:59;;;;;;;1.20;0.73;;;30.40;99.90;;;;;;5088782;28;20191;-69
2021/06/25 08:13:25;;;;;;;1.30;0.73;;;30.40;99.90;;;;;;5088976;28;20163;-70
2021/06/25 08:15:51;;;;;;;0.57;0.57;;;32.10;99.90;;;;;;5088192;28;20191;-70
2021/06/25 08:18:18;;;;;;;0.77;0.70;;;32.60;99.90;;;;;;5071506;28;20172;-70
2021/06/25 08:20:45;;;;;;;3.47;1.40;;;33.30;99.90;;;;;;5068438;28;20550;-69
2021/06/25 08:23:12;;;;;;;2.30;1.25;;;32.30;99.90;;;;;;5068604;28;20180;-68
2021/06/25 08:25:38;;;;;;;1.38;1.10;;;32.40;99.90;;;;;;5067789;28;20170;-68
2021/06/25 08:28:05;;;;;;;0.82;0.82;;;31.60;99.90;;;;;;5068501;28;20168;-68
2021/06/25 08:30:32;;;;;;;0.60;0.60;;;31.60;99.90;;;;;;5068398;28;20188;-68
2021/06/25 08:32:58;;;;;;;0.65;0.45;;;32.30;99.90;;;;;;5050977;28;20180;-68
2021/06/25 08:35:25;;;;;;;1.42;1.20;;;31.80;99.90;;;;;;5071758;28;20188;-68
2021/06/25 08:37:52;;;;;;;0.40;0.40;;;29.90;99.90;;;;;;5072330;28;20187;-69
2021/06/25 08:40:20;;;;;;;3.42;1.08;;;28.70;99.90;;;;;;5072088;28;20187;-69
2021/06/25 08:42:47;;;;;;;0.88;0.88;;;28.10;99.90;;;;;;5072231;28;20168;-69
2021/06/25 08:45:15;;;;;;;1.13;1.02;;;28.10;99.90;;;;;;5088616;28;20229;-68
2021/06/25 08:47:43;;;;;;;1.45;0.88;;;28.20;99.90;;;;;;5092229;28;20569;-68
2021/06/25 08:50:11;;;;;;;0.55;0.45;;;29.00;99.90;;;;;;5091984;28;20167;-68
2021/06/25 08:52:38;;;;;;;0.30;0.30;;;29.60;99.90;;;;;;5091752;28;20209;-69
2021/06/25 08:55:05;;;;;;;1.05;0.60;;;30.30;99.90;;;;;;5091670;28;20252;-69
2021/06/25 08:57:34;;;;;;;1.88;1.02;;;31.00;99.90;;;;;;5091488;28;20214;-69
2021/06/25 09:00:08;;;;;;;1.05;0.98;;;30.50;99.90;;;;;;5073907;28;20172;-69
2021/06/25 09:02:36;;;;;;;0.30;0.30;;;30.10;99.90;;;;;;5091957;28;20212;-69
2021/06/25 09:05:29;;;;;;;0.70;0.68;;;30.10;99.90;;;;;;5091885;28;20171;-69
2021/06/25 09:07:57;;;;;;;0.63;0.63;;;31.00;99.90;;;;;;5073392;28;20190;-69
2021/06/25 09:10:35;;;;;;;0.85;0.85;;;31.40;99.90;;;;;;5073547;28;20269;-69
2021/06/25 09:13:14;;;;;;;1.48;0.70;;;31.20;99.90;;;;;;5091430;28;20186;-69
2021/06/25 09:15:42;;;;;;;1.30;0.73;;;31.10;99.90;;;;;;5091047;28;20191;-68
2021/06/25 09:18:13;;;;;;;0.50;0.50;;;30.90;99.90;;;;;;5075343;28;20168;-68
2021/06/25 09:20:47;;;;;;;16.42;0.70;;;31.40;99.90;;;;;;5052887;28;20267;-68
2021/06/25 09:23:16;;;;;;;1.15;0.60;;;32.40;99.90;;;;;;5071301;28;20224;-69
2021/06/25 09:25:56;;;;;;;0.60;0.60;;;32.00;99.90;;;;;;5070828;28;20243;-67
2021/06/25 09:28:25;;;;;;;0.88;0.68;;;32.90;99.90;;;;;;5071329;28;20194;-69
2021/06/25 09:30:51;;;;;;;0.52;0.38;;;32.60;99.90;;;;;;5071126;28;20200;-69
2021/06/25 09:33:17;;;;;;;1.35;1.15;;;32.30;99.90;;;;;;5053018;28;20171;-69
2021/06/25 09:35:48;;;;;;;1.40;0.73;;;32.70;99.90;;;;;;5070597;28;20286;-68
2021/06/25 09:38:14;;;;;;;0.70;0.70;;;32.30;99.90;;;;;;5071067;28;20161;-68
2021/06/25 09:40:40;;;;;;;0.85;0.70;;;32.60;99.90;;;;;;5071044;28;20192;-68
2021/06/25 09:43:11;;;;;;;0.28;0.28;;;33.40;99.90;;;;;;5071141;28;20160;-68
2021/06/25 09:45:47;;;;;;;2.83;0.90;;;33.50;99.90;;;;;;5050116;28;20582;-67
2021/06/25 09:48:13;;;;;;;4.35;0.85;;;31.00;99.90;;;;;;5050525;28;20181;-67
2021/06/25 09:50:39;;;;;;;0.47;0.47;;;30.10;99.90;;;;;;5050999;28;20227;-67
2021/06/25 09:53:07;;;;;;;0.50;0.50;;;31.30;99.90;;;;;;5050723;28;20203;-67
2021/06/25 09:55:57;;;;;;;1.10;0.63;;;33.70;99.90;;;;;;5049115;28;20227;-67
2021/06/25 10:01:24;;;;;;;0.75;0.75;;;34.20;99.30;;;;;;5050746;28;20192;-70
2021/06/25 10:03:53;;;;;;;1.05;0.98;;;31.60;99.90;;;;;;5050883;28;20192;-69
2021/06/25 10:06:21;;;;;;;1.20;1.10;;;29.90;99.90;;;;;;5050168;28;20673;-69
2021/06/25 10:08:48;;;;;;;0.17;0.17;;;29.20;99.90;;;;;;5050667;28;20181;-68
2021/06/25 10:11:17;;;;;;;1.45;0.73;;;28.70;99.90;;;;;;5050515;28;20192;-69
2021/06/25 10:13:44;;;;;;;0.40;0.40;;;28.20;99.90;;;;;;5050484;28;20180;-68
2021/06/25 10:16:11;;;;;;;0.63;0.63;;;27.90;99.90;;;;;;5050198;28;20616;-69
2021/06/25 10:18:42;;;;;;;0.25;0.22;;;28.10;99.90;;;;;;5050115;28;20172;-69
2021/06/25 10:21:12;;;;;;;2.13;1.27;;;28.00;99.90;;;;;;5050011;28;20248;-69
2021/06/25 10:23:40;;;;;;;0.45;0.38;;;27.60;99.90;;;;;;5045272;28;20196;-69
2021/06/25 10:26:09;;;;;;;0.60;0.60;;;27.30;99.90;;;;;;5047864;28;20165;-69
2021/06/25 10:28:41;;;;;;;0.30;0.30;;;26.80;99.90;;;;;;5029990;28;20157;-67
2021/06/25 10:31:11;;;;;;;5.88;1.52;;;26.50;99.90;;;;;;5030242;28;20170;-69
2021/06/25 10:33:39;;;;;;;1.25;1.17;;;26.40;99.90;;;;;;5040737;28;20200;-69
2021/06/25 10:36:18;;;;;;;1.55;0.75;;;26.20;99.90;;;;;;5050115;28;20149;-69
2021/06/25 10:38:46;;;;;;;2.45;1.13;;;25.10;99.90;;;;;;5049477;28;20189;-69
2021/06/25 10:41:14;;;;;;;4.80;2.10;;;24.30;99.90;;;;;;5048384;28;20177;-69
2021/06/25 10:43:52;;;;;;;2.55;1.52;;;24.30;99.90;;;;;;5058919;28;20299;-69
2021/06/25 10:46:35;;;;;;;18.52;0.90;;;24.30;99.90;;;;;;5079927;28;20193;-68
2021/06/25 10:49:08;;;;;;;0.55;0.55;;;24.90;99.90;;;;;;5084278;28;20227;-69
2021/06/25 10:51:36;;;;;;;0.60;0.60;;;25.20;99.90;;;;;;5077985;28;20231;-69
2021/06/25 10:54:22;;;;;;;0.47;0.47;;;25.10;99.90;;;;;;5082995;28;20183;-69
2021/06/25 10:56:48;;;;;;;0.60;0.60;;;25.20;99.90;;;;;;5086831;28;20178;-69
2021/06/25 10:59:27;;;;;;;8.10;0.73;;;25.30;99.90;;;;;;5068970;28;20188;-69
2021/06/25 11:02:01;;;;;;;0.22;0.22;;;24.90;99.90;;;;;;5073182;28;20197;-69
2021/06/25 11:04:36;;;;;;;0.57;0.38;;;25.10;99.90;;;;;;5089548;28;20202;-69
2021/06/25 11:07:09;;;;;;;0.35;0.35;;;25.50;99.90;;;;;;5089418;28;20190;-69
2021/06/25 11:10:05;;;;;;;0.63;0.47;;;26.80;99.90;;;;;;5071002;28;20191;-69
2021/06/25 11:12:40;;;;;;;0.75;0.32;;;27.30;99.90;;;;;;5054468;28;20278;-69
2021/06/25 11:15:05;;;;;;;1.55;0.43;;;27.60;99.90;;;;;;5089397;28;20732;-69
2021/06/25 11:17:50;;;;;;;0.43;0.43;;;27.00;99.90;;;;;;5071379;28;20167;-69
2021/06/25 11:20:22;;;;;;;0.10;0.10;;;26.80;99.90;;;;;;5088797;28;20187;-69
2021/06/25 11:23:04;;;;;;;6.22;1.23;;;27.80;99.90;;;;;;5084533;28;20167;-69
2021/06/25 11:25:47;;;;;;;1.33;0.68;;;29.10;99.90;;;;;;5069042;28;20156;-69
2021/06/25 11:28:32;;;;;;;0.20;0.20;;;29.60;99.90;;;;;;5069227;28;20560;-69
2021/06/25 11:31:07;;;;;;;0.13;0.13;;;29.90;99.90;;;;;;5068290;28;20159;-69
2021/06/25 11:33:47;;;;;;;0.28;0.28;;;29.00;99.90;;;;;;5069058;28;20171;-69
2021/06/25 11:36:13;;;;;;;1.00;0.50;;;28.30;99.90;;;;;;5068898;28;20148;-69
2021/06/25 11:38:57;;;;;;;0.30;0.30;;;27.30;99.90;;;;;;5068790;28;20216;-69
2021/06/25 11:41:35;;;;;;;0.57;0.57;;;27.10;99.90;;;;;;5068493;28;20161;-69
2021/06/25 11:44:05;;;;;;;0.25;0.25;;;27.00;99.90;;;;;;5068712;28;20230;-69
2021/06/25 11:46:31;;;;;;;0.45;0.30;;;27.10;99.90;;;;;;5068898;28;20175;-69
2021/06/25 11:49:02;;;;;;;0.75;0.55;;;26.50;99.90;;;;;;5068420;28;20247;-69
2021/06/25 11:51:37;;;;;;;0.40;0.40;;;25.70;99.90;;;;;;5068402;28;20160;-69
2021/06/25 11:54:05;;;;;;;3.65;0.57;;;24.90;99.90;;;;;;5067440;28;20199;-69
2021/06/25 11:56:31;;;;;;;0.40;0.40;;;24.40;99.90;;;;;;5051666;28;20609;-68
2021/06/25 11:59:07;;;;;;;0.77;0.68;;;24.00;99.90;;;;;;5070602;28;20195;-68
2021/06/25 12:02:07;;;;;;;0.47;0.47;;;23.70;99.90;;;;;;5088406;28;20160;-68
2021/06/25 12:04:33;;;;;;;0.85;0.85;;;23.50;99.90;;;;;;5088149;28;20191;-68
2021/06/25 12:07:00;;;;;;;0.60;0.47;;;23.10;99.90;;;;;;5070663;28;20171;-68
2021/06/25 12:09:48;;;;;;;0.73;0.73;;;22.90;99.90;;;;;;5091309;28;20192;-68
2021/06/25 12:12:32;;;;;;;0.30;0.30;;;22.50;99.90;;;;;;5092750;28;20234;-68
2021/06/25 12:15:03;;;;;;;0.73;0.70;;;22.20;99.90;;;;;;5092658;28;20202;-68
2021/06/25 12:17:50;;;;;;;0.75;0.50;;;21.90;99.90;;;;;;5092821;28;20160;-68
2021/06/25 12:20:25;;;;;;;0.40;0.40;;;21.30;99.90;;;;;;5091926;28;20187;-68
2021/06/25 12:22:58;;;;;;;0.88;0.88;;;21.10;99.90;;;;;;5092451;28;20198;-68
2021/06/25 12:25:45;;;;;;;0.77;0.70;;;20.50;99.90;;;;;;5092411;28;20214;-69
2021/06/25 12:28:19;;;;;;;0.77;0.73;;;19.90;99.90;;;;;;5074419;28;20198;-69
2021/06/25 12:30:49;;;;;;;0.30;0.20;;;19.30;99.90;;;;;;5092093;28;20160;-69
2021/06/25 12:33:19;;;;;;;6.70;1.02;;;19.00;99.90;;;;;;5092107;28;20188;-69
2021/06/25 12:35:51;;;;;;;0.30;0.30;;;18.60;99.90;;;;;;5092067;28;20184;-69
2021/06/25 12:38:19;;;;;;;0.52;0.52;;;18.50;99.90;;;;;;5092277;28;20191;-68
2021/06/25 12:40:55;;;;;;;0.03;0.03;;;18.60;99.90;;;;;;5091894;28;20571;-68
2021/06/25 12:43:30;;;;;;;0.73;0.63;;;18.70;99.90;;;;;;5091609;28;20168;-69
2021/06/25 12:46:05;;;;;;;0.10;0.10;;;18.70;99.90;;;;;;5092013;28;20166;-68
2021/06/25 12:48:35;;;;;;;0.20;0.20;;;18.80;99.90;;;;;;5092063;28;20218;-69
2021/06/25 12:51:05;;;;;;;0.52;0.52;;;18.90;99.90;;;;;;5091737;28;20184;-68
2021/06/25 12:53:33;;;;;;;0.68;0.30;;;18.90;99.90;;;;;;5091827;28;20160;-68
2021/06/25 12:56:23;;;;;;;0.47;0.47;;;18.90;99.90;;;;;;5091845;28;20192;-68
2021/06/25 12:58:55;;;;;;;0.45;0.30;;;19.20;99.90;;;;;;5066248;28;20242;-68
2021/06/25 13:01:22;;;;;;;0.22;0.17;;;19.50;99.90;;;;;;5071842;28;20153;-68
2021/06/25 13:03:48;;;;;;;0.47;0.47;;;19.60;99.90;;;;;;5070325;28;20232;-67
2021/06/25 13:06:47;;;;;;;0.20;0.20;;;19.70;99.90;;;;;;5071710;28;20161;-68
2021/06/25 13:09:20;;;;;;;0.20;0.17;;;20.00;99.90;;;;;;5070941;28;20283;-68
2021/06/25 13:11:49;;;;;;;0.45;0.43;;;20.20;99.90;;;;;;5071814;28;20207;-69